createdAt,value
2018-11-05T00:01:05.645Z,22.93
2018-11-05T00:03:33.931Z,20.30
2018-11-05T00:06:02.398Z,22.42
2018-11-05T00:08:30.664Z,22.25
2018-11-05T00:10:58.940Z,21.65
2018-11-05T00:13:27.217Z,24.72
2018-11-05T00:15:56.039Z,21.37
2018-11-05T00:18:24.345Z,21.30
2018-11-05T00:20:52.625Z,18.55
2018-11-05T00:23:20.941Z,21.87
2018-11-05T00:25:49.196Z,23.40
2018-11-05T00:28:17.592Z,21.55
2018-11-05T00:30:45.881Z,21.02
2018-11-05T00:33:14.169Z,18.70
2018-11-05T00:35:42.451Z,19.40
2018-11-05T00:38:10.832Z,20.40
2018-11-05T00:40:39.149Z,21.75
2018-11-05T00:43:07.451Z,24.10
2018-11-05T00:45:35.795Z,20.57
2018-11-05T00:48:04.001Z,20.50
2018-11-05T00:50:32.310Z,22.23
2018-11-05T00:53:00.584Z,22.98
2018-11-05T00:55:28.869Z,23.27
2018-11-05T00:57:57.180Z,22.90
2018-11-05T01:00:25.440Z,20.35
2018-11-05T01:02:53.801Z,21.73
2018-11-05T01:05:22.103Z,22.90
2018-11-05T01:07:50.391Z,23.00
2018-11-05T01:10:18.667Z,22.37
2018-11-05T01:12:46.972Z,27.40
2018-11-05T01:15:17.360Z,29.48
2018-11-05T01:17:45.723Z,27.40
2018-11-05T01:20:15.043Z,24.52
2018-11-05T01:22:43.318Z,22.05
2018-11-05T01:25:11.700Z,22.27
2018-11-05T01:27:40.042Z,28.23
2018-11-05T01:30:15.977Z,26.30
2018-11-05T01:32:44.281Z,25.47
2018-11-05T01:35:13.515Z,24.25
2018-11-05T01:37:41.987Z,24.60
2018-11-05T01:40:12.627Z,25.40
2018-11-05T01:42:40.995Z,24.53
2018-11-05T01:45:10.625Z,25.25
2018-11-05T01:47:39.148Z,25.68
2018-11-05T01:50:08.911Z,25.70
2018-11-05T01:52:37.210Z,27.93
2018-11-05T01:55:06.327Z,28.00
2018-11-05T01:57:34.632Z,26.65
2018-11-05T02:00:02.936Z,27.73
2018-11-05T02:02:31.219Z,26.40
2018-11-05T02:04:59.537Z,29.05
2018-11-05T02:07:27.820Z,30.60
2018-11-05T02:09:56.109Z,27.58
2018-11-05T02:12:24.363Z,30.55
2018-11-05T02:14:52.647Z,29.50
2018-11-05T02:17:21.128Z,30.35
2018-11-05T02:19:49.912Z,28.38
2018-11-05T02:22:18.199Z,32.58
2018-11-05T02:24:46.478Z,30.73
2018-11-05T02:27:14.843Z,31.57
2018-11-05T02:29:43.088Z,30.12
2018-11-05T02:32:11.352Z,31.27
2018-11-05T02:34:39.700Z,31.10
2018-11-05T02:37:08.028Z,32.17
2018-11-05T02:39:36.327Z,35.78
2018-11-05T02:42:04.794Z,32.33
2018-11-05T02:44:33.073Z,29.67
2018-11-05T02:47:01.362Z,28.15
2018-11-05T02:49:29.611Z,33.65
2018-11-05T02:51:57.937Z,31.00
2018-11-05T02:54:26.192Z,29.27
2018-11-05T02:56:54.509Z,30.25
2018-11-05T02:59:22.786Z,26.82
2018-11-05T03:01:51.261Z,27.52
2018-11-05T03:04:19.523Z,32.67
2018-11-05T03:06:47.846Z,27.77
2018-11-05T03:09:16.139Z,31.25
2018-11-05T03:11:44.499Z,28.17
2018-11-05T03:14:12.763Z,29.48
2018-11-05T03:16:41.074Z,32.33
2018-11-05T03:19:09.423Z,41.50
2018-11-05T03:21:37.705Z,39.40
2018-11-05T03:24:06.029Z,38.63
2018-11-05T03:26:35.214Z,38.58
2018-11-05T03:29:03.517Z,47.78
2018-11-05T03:31:31.816Z,39.03
2018-11-05T03:34:00.140Z,34.23
2018-11-05T03:36:28.416Z,34.73
2018-11-05T03:38:56.729Z,38.50
2018-11-05T03:41:24.980Z,40.38
2018-11-05T03:43:53.240Z,34.88
2018-11-05T03:46:21.532Z,35.60
2018-11-05T03:48:49.806Z,30.27
2018-11-05T03:51:18.225Z,30.50
2018-11-05T03:53:46.486Z,33.53
2018-11-05T03:56:14.805Z,33.80
2018-11-05T03:58:43.090Z,31.45
2018-11-05T04:01:11.386Z,36.03
2018-11-05T04:03:39.692Z,32.05
2018-11-05T04:06:07.975Z,31.55
2018-11-05T04:08:36.378Z,33.18
2018-11-05T04:11:05.198Z,32.42
2018-11-05T04:13:33.452Z,28.70
2018-11-05T04:16:01.997Z,34.37
2018-11-05T04:18:30.368Z,33.48
2018-11-05T04:20:58.657Z,31.65
2018-11-05T04:23:26.954Z,33.30
2018-11-05T04:25:55.220Z,39.48
2018-11-05T04:28:23.536Z,32.30
2018-11-05T04:30:51.821Z,43.68
2018-11-05T04:33:20.076Z,37.03
2018-11-05T04:35:48.374Z,38.88
2018-11-05T04:38:16.628Z,38.17
2018-11-05T04:40:45.046Z,43.20
2018-11-05T04:43:13.378Z,38.40
2018-11-05T04:45:41.688Z,41.35
2018-11-05T04:48:09.941Z,39.18
2018-11-05T04:50:38.244Z,39.60
2018-11-05T04:53:06.667Z,41.60
2018-11-05T04:55:34.943Z,42.93
2018-11-05T04:58:03.212Z,44.93
2018-11-05T05:00:31.494Z,43.45
2018-11-05T05:02:59.783Z,43.65
2018-11-05T05:05:28.063Z,39.88
2018-11-05T05:07:56.328Z,45.70
2018-11-05T05:10:24.636Z,50.37
2018-11-05T05:12:52.909Z,44.35
2018-11-05T05:15:21.169Z,45.03
2018-11-05T05:17:49.428Z,47.75
2018-11-05T05:20:17.767Z,43.25
2018-11-05T05:22:46.216Z,52.65
2018-11-05T05:25:14.550Z,50.10
2018-11-05T05:27:42.858Z,43.23
2018-11-05T05:30:14.168Z,48.95
2018-11-05T05:32:43.232Z,48.98
2018-11-05T05:35:11.500Z,50.10
2018-11-05T05:37:40.025Z,56.92
2018-11-05T05:40:08.651Z,47.90
2018-11-05T05:42:37.292Z,48.58
2018-11-05T05:45:06.600Z,48.33
2018-11-05T05:47:34.898Z,51.28
2018-11-05T05:50:03.571Z,44.93
2018-11-05T05:52:31.839Z,41.45
2018-11-05T05:55:00.147Z,38.55
2018-11-05T05:57:28.418Z,45.95
2018-11-05T05:59:57.130Z,40.80
2018-11-05T06:02:25.342Z,38.42
2018-11-05T06:04:53.603Z,47.35
2018-11-05T06:07:21.885Z,41.83
2018-11-05T06:09:50.170Z,44.53
2018-11-05T06:12:18.452Z,40.48
2018-11-05T06:14:46.820Z,44.00
2018-11-05T06:17:15.075Z,39.92
2018-11-05T06:19:43.435Z,42.17
2018-11-05T06:22:11.691Z,41.93
2018-11-05T06:24:40.027Z,42.83
2018-11-05T06:27:08.308Z,38.73
2018-11-05T06:29:36.586Z,40.17
2018-11-05T06:32:05.225Z,35.55
2018-11-05T06:34:33.473Z,36.27
2018-11-05T06:37:01.869Z,42.78
2018-11-05T06:39:30.130Z,36.45
2018-11-05T06:41:58.439Z,35.73
2018-11-05T06:44:26.731Z,36.38
2018-11-05T06:46:55.008Z,47.93
2018-11-05T06:49:23.276Z,39.20
2018-11-05T06:51:51.523Z,38.87
2018-11-05T06:54:20.016Z,39.73
2018-11-05T06:56:48.311Z,41.48
2018-11-05T06:59:16.613Z,46.45
2018-11-05T07:01:44.903Z,37.98
2018-11-05T07:04:13.263Z,46.33
2018-11-05T07:06:41.627Z,39.75
2018-11-05T07:09:10.954Z,45.90
2018-11-05T07:11:39.761Z,48.13
2018-11-05T07:14:08.232Z,50.55
2018-11-05T07:16:36.727Z,53.20
2018-11-05T07:19:05.629Z,61.10
2018-11-05T07:21:33.880Z,52.55
2018-11-05T07:24:02.199Z,61.35
2018-11-05T07:26:30.477Z,61.53
2018-11-05T07:28:58.781Z,68.40
2018-11-05T07:31:27.077Z,80.10
2018-11-05T07:33:55.510Z,70.17
2018-11-05T07:36:23.667Z,97.57
2018-11-05T07:38:51.977Z,110.95
2018-11-05T07:41:20.280Z,111.68
2018-11-05T07:43:48.576Z,125.70
2018-11-05T07:46:16.903Z,145.03
2018-11-05T07:48:45.197Z,146.02
2018-11-05T07:51:13.481Z,99.37
2018-11-05T07:53:41.718Z,125.00
2018-11-05T07:56:10.022Z,128.40
2018-11-05T07:58:38.306Z,141.15
2018-11-05T08:01:07.907Z,94.28
2018-11-05T08:03:36.151Z,77.73
2018-11-05T08:06:04.462Z,90.28
2018-11-05T08:08:32.856Z,75.03
2018-11-05T08:11:01.024Z,61.45
2018-11-05T08:13:29.327Z,53.15
2018-11-05T08:15:57.768Z,40.28
2018-11-05T08:18:26.048Z,39.78
2018-11-05T08:20:54.317Z,52.67
2018-11-05T08:23:22.623Z,52.30
2018-11-05T08:25:50.920Z,34.27
2018-11-05T08:28:19.216Z,33.13
2018-11-05T08:30:47.558Z,26.77
2018-11-05T08:33:16.104Z,40.60
2018-11-05T08:35:44.557Z,38.30
2018-11-05T08:38:12.862Z,38.10
2018-11-05T08:40:41.216Z,44.88
2018-11-05T08:43:09.540Z,38.25
2018-11-05T08:45:37.818Z,35.60
2018-11-05T08:48:06.140Z,34.65
2018-11-05T08:50:34.509Z,42.38
2018-11-05T08:53:02.778Z,31.87
2018-11-05T08:55:31.063Z,29.65
2018-11-05T08:57:59.362Z,34.27
2018-11-05T09:00:33.008Z,35.78
2018-11-05T09:03:01.262Z,34.35
2018-11-05T09:05:29.535Z,32.93
2018-11-05T09:07:57.878Z,32.90
2018-11-05T09:10:26.368Z,35.37
2018-11-05T09:12:54.706Z,32.28
2018-11-05T09:15:23.422Z,35.63
2018-11-05T09:17:51.912Z,31.73
2018-11-05T09:20:20.670Z,34.43
2018-11-05T09:22:49.782Z,26.73
2018-11-05T09:25:18.263Z,29.60
2018-11-05T09:27:46.736Z,33.08
2018-11-05T09:30:17.591Z,28.77
2018-11-05T09:32:46.355Z,30.57
2018-11-05T09:35:14.651Z,29.25
2018-11-05T09:37:42.935Z,27.63
2018-11-05T09:40:13.939Z,34.93
2018-11-05T09:42:42.806Z,36.60
2018-11-05T09:45:15.843Z,34.23
2018-11-05T09:47:44.831Z,30.70
2018-11-05T09:50:13.412Z,32.48
2018-11-05T09:52:41.689Z,44.25
2018-11-05T09:55:11.089Z,37.73
2018-11-05T09:57:39.631Z,34.50
2018-11-05T10:00:10.475Z,39.35
2018-11-05T10:02:44.102Z,44.90
2018-11-05T10:05:13.236Z,35.78
2018-11-05T10:07:41.371Z,35.07
2018-11-05T10:10:10.810Z,31.55
2018-11-05T10:12:39.467Z,34.85
2018-11-05T10:15:08.711Z,30.92
2018-11-05T10:17:37.665Z,34.20
2018-11-05T10:20:08.012Z,33.10
2018-11-05T10:22:36.718Z,33.40
2018-11-05T10:25:06.512Z,36.25
2018-11-05T10:27:34.866Z,34.43
2018-11-05T10:30:03.142Z,37.85
2018-11-05T10:32:31.480Z,36.68
2018-11-05T10:34:59.904Z,33.30
2018-11-05T10:37:28.326Z,38.98
2018-11-05T10:39:56.637Z,37.23
2018-11-05T10:42:24.919Z,39.73
2018-11-05T10:44:53.222Z,36.42
2018-11-05T10:47:21.520Z,37.05
2018-11-05T10:49:49.824Z,31.82
2018-11-05T10:52:18.154Z,33.25
2018-11-05T10:54:46.376Z,35.23
2018-11-05T10:57:14.675Z,28.83
2018-11-05T10:59:42.963Z,30.52
2018-11-05T11:02:16.484Z,26.23
2018-11-05T11:04:44.823Z,33.60
2018-11-05T11:07:13.496Z,28.05
2018-11-05T11:09:42.245Z,26.55
2018-11-05T11:12:10.441Z,27.75
2018-11-05T11:14:38.733Z,27.25
2018-11-05T11:17:06.984Z,26.37
2018-11-05T11:19:35.277Z,23.47
2018-11-05T11:22:03.577Z,18.42
2018-11-05T11:24:31.855Z,25.77
2018-11-05T11:27:00.167Z,18.20
2018-11-05T11:29:28.602Z,20.23
2018-11-05T11:31:56.739Z,20.80
2018-11-05T11:34:25.028Z,16.03
2018-11-05T11:36:53.303Z,19.00
2018-11-05T11:39:21.562Z,17.20
2018-11-05T11:41:49.849Z,17.85
2018-11-05T11:44:18.270Z,18.10
2018-11-05T11:46:46.506Z,17.73
2018-11-05T11:49:14.803Z,18.23
2018-11-05T11:51:43.088Z,21.75
2018-11-05T11:54:11.622Z,21.80
2018-11-05T11:56:40.016Z,22.43
2018-11-05T11:59:08.307Z,21.23
2018-11-05T12:01:42.055Z,21.73
2018-11-05T12:04:10.335Z,22.37
2018-11-05T12:06:38.654Z,22.25
2018-11-05T12:09:07.816Z,21.93
2018-11-05T12:11:36.205Z,24.00
2018-11-05T12:14:04.649Z,23.30
2018-11-05T12:16:32.895Z,20.65
2018-11-05T12:19:01.234Z,22.37
2018-11-05T12:21:29.524Z,22.93
2018-11-05T12:23:57.806Z,21.77
2018-11-05T12:26:26.044Z,21.40
2018-11-05T12:28:54.302Z,20.97
2018-11-05T12:31:22.590Z,17.52
2018-11-05T12:33:50.889Z,19.48
2018-11-05T12:36:19.180Z,22.02
2018-11-05T12:38:47.588Z,21.25
2018-11-05T12:41:15.819Z,20.65
2018-11-05T12:43:44.242Z,22.17
2018-11-05T12:46:12.584Z,17.90
2018-11-05T12:48:40.886Z,17.20
2018-11-05T12:51:09.145Z,19.03
2018-11-05T12:53:37.430Z,19.40
2018-11-05T12:56:05.743Z,19.90
2018-11-05T12:58:34.028Z,18.65
2018-11-05T13:01:02.348Z,19.90
2018-11-05T13:03:31.023Z,18.90
2018-11-05T13:05:59.303Z,18.27
2018-11-05T13:08:27.818Z,17.20
2018-11-05T13:10:56.255Z,19.07
2018-11-05T13:13:24.556Z,17.70
2018-11-05T13:15:53.035Z,18.50
2018-11-05T13:18:21.332Z,16.90
2018-11-05T13:20:49.743Z,20.08
2018-11-05T13:23:23.425Z,18.52
2018-11-05T13:25:51.712Z,17.45
2018-11-05T13:28:19.994Z,20.17
2018-11-05T13:30:48.395Z,20.97
2018-11-05T13:33:16.774Z,16.70
2018-11-05T13:35:45.080Z,14.75
2018-11-05T13:38:14.195Z,18.50
2018-11-05T13:40:41.763Z,16.37
2018-11-05T13:43:10.035Z,18.67
2018-11-05T13:45:38.513Z,19.35
2018-11-05T13:48:07.128Z,18.53
2018-11-05T13:50:35.120Z,18.60
2018-11-05T13:53:03.420Z,19.80
2018-11-05T13:55:31.706Z,19.07
2018-11-05T13:58:00.004Z,18.70
2018-11-05T14:00:28.252Z,19.55
2018-11-05T14:02:56.502Z,18.30
2018-11-05T14:05:24.856Z,18.87
2018-11-05T14:07:53.207Z,18.90
2018-11-05T14:10:22.095Z,21.17
2018-11-05T14:12:50.842Z,20.52
2018-11-05T14:15:19.324Z,18.50
2018-11-05T14:17:47.789Z,18.30
2018-11-05T14:20:17.402Z,19.00
2018-11-05T14:22:45.700Z,17.85
2018-11-05T14:25:15.280Z,21.23
2018-11-05T14:27:44.907Z,18.15
2018-11-05T14:30:13.685Z,19.92
2018-11-05T14:32:43.224Z,19.03
2018-11-05T14:35:11.656Z,23.80
2018-11-05T14:37:40.182Z,18.42
2018-11-05T14:40:10.269Z,22.07
2018-11-05T14:42:38.658Z,20.65
2018-11-05T14:45:08.755Z,20.52
2018-11-05T14:47:37.047Z,18.95
2018-11-05T14:50:06.919Z,19.70
2018-11-05T14:52:35.508Z,23.00
2018-11-05T14:55:03.848Z,19.55
2018-11-05T14:57:32.159Z,22.62
2018-11-05T15:00:00.482Z,22.83
2018-11-05T15:02:34.087Z,23.70
2018-11-05T15:05:02.393Z,24.65
2018-11-05T15:07:30.738Z,19.12
2018-11-05T15:09:59.051Z,23.07
2018-11-05T15:12:27.336Z,21.17
2018-11-05T15:14:55.607Z,22.62
2018-11-05T15:17:23.990Z,22.30
2018-11-05T15:19:52.566Z,22.58
2018-11-05T15:22:20.594Z,24.50
2018-11-05T15:24:48.922Z,23.43
2018-11-05T15:27:17.190Z,21.10
2018-11-05T15:29:45.641Z,22.60
2018-11-05T15:32:14.042Z,23.90
2018-11-05T15:34:42.355Z,22.22
2018-11-05T15:37:10.621Z,25.37
2018-11-05T15:39:38.992Z,31.00
2018-11-05T15:42:07.411Z,28.43
2018-11-05T15:44:35.720Z,23.98
2018-11-05T15:47:04.046Z,24.00
2018-11-05T15:49:32.996Z,22.75
2018-11-05T15:52:02.366Z,23.90
2018-11-05T15:54:30.583Z,23.80
2018-11-05T15:56:58.678Z,25.23
2018-11-05T15:59:26.944Z,23.80
2018-11-05T16:01:55.238Z,24.37
2018-11-05T16:04:23.594Z,22.85
2018-11-05T16:06:51.821Z,27.10
2018-11-05T16:09:20.170Z,22.73
2018-11-05T16:11:48.500Z,23.27
2018-11-05T16:14:16.741Z,24.40
2018-11-05T16:16:45.076Z,24.43
2018-11-05T16:19:13.370Z,21.25
2018-11-05T16:21:41.642Z,27.80
2018-11-05T16:24:10.221Z,27.65
2018-11-05T16:26:38.488Z,24.63
2018-11-05T16:29:06.749Z,27.77
2018-11-05T16:31:35.043Z,30.85
2018-11-05T16:34:03.313Z,26.97
2018-11-05T16:36:31.589Z,27.47
2018-11-05T16:38:59.997Z,30.03
2018-11-05T16:41:28.290Z,26.73
2018-11-05T16:43:56.579Z,32.15
2018-11-05T16:46:24.860Z,36.65
2018-11-05T16:48:53.138Z,35.58
2018-11-05T16:51:21.446Z,29.87
2018-11-05T16:53:49.749Z,27.80
2018-11-05T16:56:18.019Z,28.52
2018-11-05T16:58:46.302Z,28.98
2018-11-05T17:01:14.970Z,28.87
2018-11-05T17:03:43.246Z,26.45
2018-11-05T17:06:11.619Z,27.52
2018-11-05T17:08:39.898Z,31.65
2018-11-05T17:11:08.573Z,31.48
2018-11-05T17:13:36.961Z,30.10
2018-11-05T17:16:05.885Z,31.52
2018-11-05T17:18:34.188Z,29.33
2018-11-05T17:21:02.535Z,30.27
2018-11-05T17:23:30.883Z,30.50
2018-11-05T17:25:59.186Z,29.12
2018-11-05T17:28:27.492Z,30.92
2018-11-05T17:30:55.813Z,31.17
2018-11-05T17:33:26.633Z,39.15
2018-11-05T17:35:55.002Z,33.95
2018-11-05T17:38:23.640Z,26.45
2018-11-05T17:40:52.589Z,28.32
2018-11-05T17:43:21.127Z,29.82
2018-11-05T17:45:49.611Z,31.07
2018-11-05T17:48:17.919Z,27.58
2018-11-05T17:50:47.364Z,27.77
2018-11-05T17:53:15.620Z,27.07
2018-11-05T17:55:43.954Z,35.05
2018-11-05T17:58:12.378Z,29.12
2018-11-05T18:00:40.680Z,29.87
2018-11-05T18:03:08.982Z,30.17
2018-11-05T18:05:37.253Z,28.13
2018-11-05T18:08:05.616Z,27.42
2018-11-05T18:10:33.900Z,25.40
2018-11-05T18:13:02.340Z,26.82
2018-11-05T18:15:30.813Z,27.40
2018-11-05T18:17:59.484Z,30.02
2018-11-05T18:20:27.784Z,29.45
2018-11-05T18:22:56.075Z,29.10
2018-11-05T18:25:24.356Z,31.15
2018-11-05T18:27:52.677Z,24.37
2018-11-05T18:30:20.970Z,28.40
2018-11-05T18:32:49.231Z,24.40
2018-11-05T18:35:17.687Z,28.80
2018-11-05T18:37:48.023Z,27.02
2018-11-05T18:40:16.561Z,27.80
2018-11-05T18:42:45.092Z,31.20
2018-11-05T18:45:13.627Z,28.30
2018-11-05T18:47:42.231Z,31.25
2018-11-05T18:50:12.260Z,31.43
2018-11-05T18:52:40.670Z,33.63
2018-11-05T18:55:10.284Z,42.13
2018-11-05T18:57:38.762Z,36.75
2018-11-05T19:00:15.560Z,42.55
2018-11-05T19:05:27.266Z,39.60
2018-11-05T19:07:55.551Z,39.92
2018-11-05T19:10:23.859Z,44.55
2018-11-05T19:12:52.894Z,39.27
2018-11-05T19:15:21.351Z,42.78
2018-11-05T19:17:50.215Z,42.10
2018-11-05T19:20:18.727Z,41.35
2018-11-05T19:22:47.332Z,56.83
2018-11-05T19:25:16.325Z,72.00
2018-11-05T19:27:44.625Z,52.38
2018-11-05T19:30:16.486Z,42.38
2018-11-05T19:32:45.219Z,34.93
2018-11-05T19:35:13.619Z,33.25
2018-11-05T19:37:42.527Z,38.55
2018-11-05T19:40:12.011Z,35.55
2018-11-05T19:42:41.515Z,33.13
2018-11-05T19:45:11.267Z,30.72
2018-11-05T19:47:39.834Z,31.80
2018-11-05T19:50:10.573Z,36.67
2018-11-05T19:52:39.087Z,37.67
2018-11-05T19:55:08.332Z,43.70
2018-11-05T19:57:37.122Z,36.63
2018-11-05T20:00:07.648Z,37.65
2018-11-05T20:02:35.875Z,33.73
2018-11-05T20:05:04.129Z,36.40
2018-11-05T20:07:32.423Z,32.67
2018-11-05T20:10:00.711Z,31.77
2018-11-05T20:12:29.092Z,30.97
2018-11-05T20:14:57.407Z,36.85
2018-11-05T20:17:25.684Z,35.80
2018-11-05T20:19:53.948Z,35.43
2018-11-05T20:22:22.316Z,34.00
2018-11-05T20:24:50.579Z,35.92
2018-11-05T20:27:18.873Z,32.50
2018-11-05T20:29:47.278Z,33.15
2018-11-05T20:32:15.842Z,36.30
2018-11-05T20:34:43.846Z,41.40
2018-11-05T20:37:12.123Z,43.45
2018-11-05T20:39:40.436Z,37.00
2018-11-05T20:42:08.710Z,36.68
2018-11-05T20:44:37.015Z,39.63
2018-11-05T20:47:05.886Z,33.08
2018-11-05T20:49:34.300Z,33.00
2018-11-05T20:52:02.595Z,31.77
2018-11-05T20:54:30.882Z,33.30
2018-11-05T20:56:59.164Z,33.70
2018-11-05T20:59:27.420Z,30.85
2018-11-05T21:01:55.742Z,29.57
2018-11-05T21:04:24.044Z,28.92
2018-11-05T21:06:52.358Z,36.35
2018-11-05T21:09:20.639Z,37.60
2018-11-05T21:11:48.961Z,34.53
2018-11-05T21:14:17.268Z,35.85
2018-11-05T21:16:45.560Z,40.88
2018-11-05T21:19:13.973Z,41.28
2018-11-05T21:21:42.455Z,38.70
2018-11-05T21:24:10.540Z,36.77
2018-11-05T21:26:38.780Z,33.70
2018-11-05T21:29:07.107Z,31.60
2018-11-05T21:31:35.367Z,34.70
2018-11-05T21:34:03.722Z,34.65
2018-11-05T21:36:32.027Z,32.67
2018-11-05T21:39:00.356Z,34.95
2018-11-05T21:41:28.650Z,31.50
2018-11-05T21:43:56.933Z,30.55
2018-11-05T21:46:25.292Z,31.87
2018-11-05T21:48:53.571Z,29.82
2018-11-05T21:51:21.899Z,30.17
2018-11-05T21:53:50.179Z,33.15
2018-11-05T21:56:18.478Z,32.65
2018-11-05T21:58:46.767Z,36.75
2018-11-05T22:01:15.043Z,34.27
2018-11-05T22:03:43.345Z,34.10
2018-11-05T22:06:11.627Z,31.77
2018-11-05T22:08:39.942Z,30.55
2018-11-05T22:11:08.231Z,29.98
2018-11-05T22:13:36.680Z,29.98
2018-11-05T22:16:04.973Z,30.80
2018-11-05T22:18:33.266Z,30.60
2018-11-05T22:21:01.556Z,34.33
2018-11-05T22:23:30.009Z,32.08
2018-11-05T22:25:58.323Z,28.07
2018-11-05T22:28:26.630Z,31.50
2018-11-05T22:30:54.923Z,34.30
2018-11-05T22:33:23.239Z,32.40
2018-11-05T22:35:51.567Z,32.85
2018-11-05T22:38:20.027Z,31.17
2018-11-05T22:40:48.173Z,33.15
2018-11-05T22:43:16.586Z,34.23
2018-11-05T22:45:44.900Z,31.15
2018-11-05T22:48:13.204Z,33.35
2018-11-05T22:50:41.516Z,34.00
2018-11-05T22:53:09.758Z,30.27
2018-11-05T22:55:38.051Z,30.50
2018-11-05T22:58:06.901Z,31.07
2018-11-05T23:00:40.551Z,32.98
2018-11-05T23:03:14.031Z,32.48
2018-11-05T23:05:42.342Z,32.20
2018-11-05T23:08:10.643Z,30.75
2018-11-05T23:10:38.899Z,30.77
2018-11-05T23:13:07.156Z,31.82
2018-11-05T23:15:35.459Z,33.70
2018-11-05T23:18:03.760Z,30.27
2018-11-05T23:20:32.044Z,31.33
2018-11-05T23:23:00.292Z,30.95
2018-11-05T23:25:28.618Z,31.57
2018-11-05T23:27:57.023Z,30.62
2018-11-05T23:30:25.297Z,28.93
2018-11-05T23:32:53.663Z,31.73
2018-11-05T23:35:21.932Z,32.10
2018-11-05T23:37:50.307Z,27.30
2018-11-05T23:40:18.704Z,31.33
2018-11-05T23:42:46.994Z,31.20
2018-11-05T23:45:16.415Z,28.37
2018-11-05T23:47:44.888Z,28.90
2018-11-05T23:50:13.550Z,28.12
2018-11-05T23:52:42.096Z,24.40
2018-11-05T23:55:11.122Z,29.82
2018-11-05T23:57:39.503Z,26.40
